sensor_id;sensor_type;location;lat;lon;timestamp;P1;durP1;ratioP1;P2;durP2;ratioP2
31132;SDS011;17779;50.942;4.026;2023-03-26T00:00:28;28.27;;;6.15;;
31132;SDS011;17779;50.942;4.026;2023-03-26T00:02:55;29.60;;;5.28;;
31132;SDS011;17779;50.942;4.026;2023-03-26T00:05:21;31.58;;;5.43;;
31132;SDS011;17779;50.942;4.026;2023-03-26T00:07:47;41.65;;;5.95;;
31132;SDS011;17779;50.942;4.026;2023-03-26T00:10:13;35.88;;;6.32;;
31132;SDS011;17779;50.942;4.026;2023-03-26T00:12:39;23.70;;;4.82;;
31132;SDS011;17779;50.942;4.026;2023-03-26T00:15:05;28.83;;;5.70;;
31132;SDS011;17779;50.942;4.026;2023-03-26T00:17:34;41.13;;;5.97;;
31132;SDS011;17779;50.942;4.026;2023-03-26T00:22:27;20.67;;;4.40;;
31132;SDS011;17779;50.942;4.026;2023-03-26T00:24:53;30.05;;;4.35;;
31132;SDS011;17779;50.942;4.026;2023-03-26T00:27:21;30.52;;;4.88;;
31132;SDS011;17779;50.942;4.026;2023-03-26T00:29:47;24.08;;;4.85;;
31132;SDS011;17779;50.942;4.026;2023-03-26T00:32:13;26.75;;;4.70;;
31132;SDS011;17779;50.942;4.026;2023-03-26T00:34:39;29.73;;;5.78;;
31132;SDS011;17779;50.942;4.026;2023-03-26T00:37:05;27.65;;;5.70;;
31132;SDS011;17779;50.942;4.026;2023-03-26T00:39:33;26.50;;;5.22;;
31132;SDS011;17779;50.942;4.026;2023-03-26T00:42:01;25.08;;;4.57;;
31132;SDS011;17779;50.942;4.026;2023-03-26T00:44:31;29.58;;;5.47;;
31132;SDS011;17779;50.942;4.026;2023-03-26T00:46:58;32.55;;;5.28;;
31132;SDS011;17779;50.942;4.026;2023-03-26T00:49:24;29.42;;;5.20;;
31132;SDS011;17779;50.942;4.026;2023-03-26T00:51:54;26.38;;;4.43;;
31132;SDS011;17779;50.942;4.026;2023-03-26T00:54:20;33.83;;;4.80;;
31132;SDS011;17779;50.942;4.026;2023-03-26T00:56:46;35.25;;;5.43;;
31132;SDS011;17779;50.942;4.026;2023-03-26T00:59:12;36.78;;;5.30;;
31132;SDS011;17779;50.942;4.026;2023-03-26T01:01:38;34.25;;;4.80;;
31132;SDS011;17779;50.942;4.026;2023-03-26T01:04:21;35.17;;;5.43;;
31132;SDS011;17779;50.942;4.026;2023-03-26T01:06:51;32.78;;;5.45;;
31132;SDS011;17779;50.942;4.026;2023-03-26T01:09:20;27.38;;;4.68;;
31132;SDS011;17779;50.942;4.026;2023-03-26T01:11:57;29.73;;;5.10;;
31132;SDS011;17779;50.942;4.026;2023-03-26T01:14:26;36.83;;;6.30;;
31132;SDS011;17779;50.942;4.026;2023-03-26T01:16:54;31.52;;;5.88;;
31132;SDS011;17779;50.942;4.026;2023-03-26T01:19:24;29.40;;;5.65;;
31132;SDS011;17779;50.942;4.026;2023-03-26T01:21:55;23.17;;;4.53;;
31132;SDS011;17779;50.942;4.026;2023-03-26T01:24:22;35.25;;;5.18;;
31132;SDS011;17779;50.942;4.026;2023-03-26T01:27:08;30.95;;;6.55;;
31132;SDS011;17779;50.942;4.026;2023-03-26T01:32:37;34.45;;;6.82;;
31132;SDS011;17779;50.942;4.026;2023-03-26T01:40:35;32.60;;;6.43;;
31132;SDS011;17779;50.942;4.026;2023-03-26T01:43:11;20.83;;;4.40;;
31132;SDS011;17779;50.942;4.026;2023-03-26T01:45:40;28.30;;;5.47;;
31132;SDS011;17779;50.942;4.026;2023-03-26T01:48:08;28.73;;;5.00;;
31132;SDS011;17779;50.942;4.026;2023-03-26T01:50:34;28.80;;;5.43;;
31132;SDS011;17779;50.942;4.026;2023-03-26T01:53:00;23.38;;;4.63;;
31132;SDS011;17779;50.942;4.026;2023-03-26T01:55:27;23.38;;;4.43;;
31132;SDS011;17779;50.942;4.026;2023-03-26T02:01:28;24.95;;;4.00;;
31132;SDS011;17779;50.942;4.026;2023-03-26T02:09:23;21.58;;;4.43;;
31132;SDS011;17779;50.942;4.026;2023-03-26T02:11:54;24.70;;;4.07;;
31132;SDS011;17779;50.942;4.026;2023-03-26T02:14:21;20.70;;;4.00;;
31132;SDS011;17779;50.942;4.026;2023-03-26T02:16:47;21.25;;;4.25;;
31132;SDS011;17779;50.942;4.026;2023-03-26T02:19:15;20.33;;;4.00;;
31132;SDS011;17779;50.942;4.026;2023-03-26T02:21:46;25.67;;;4.25;;
31132;SDS011;17779;50.942;4.026;2023-03-26T02:24:16;24.75;;;3.97;;
31132;SDS011;17779;50.942;4.026;2023-03-26T02:26:43;24.08;;;4.10;;
31132;SDS011;17779;50.942;4.026;2023-03-26T02:29:11;26.17;;;4.38;;
31132;SDS011;17779;50.942;4.026;2023-03-26T02:31:39;22.02;;;4.05;;
31132;SDS011;17779;50.942;4.026;2023-03-26T02:34:04;18.67;;;4.10;;
31132;SDS011;17779;50.942;4.026;2023-03-26T02:36:30;21.45;;;4.05;;
31132;SDS011;17779;50.942;4.026;2023-03-26T02:38:56;19.10;;;3.90;;
31132;SDS011;17779;50.942;4.026;2023-03-26T02:41:24;23.75;;;4.65;;
31132;SDS011;17779;50.942;4.026;2023-03-26T02:43:50;21.40;;;4.30;;
31132;SDS011;17779;50.942;4.026;2023-03-26T02:46:16;20.80;;;4.72;;
31132;SDS011;17779;50.942;4.026;2023-03-26T02:48:42;24.63;;;4.10;;
31132;SDS011;17779;50.942;4.026;2023-03-26T02:51:08;19.92;;;4.65;;
31132;SDS011;17779;50.942;4.026;2023-03-26T02:53:34;22.48;;;4.22;;
31132;SDS011;17779;50.942;4.026;2023-03-26T02:56:01;28.98;;;4.88;;
31132;SDS011;17779;50.942;4.026;2023-03-26T03:00:54;21.37;;;4.47;;
31132;SDS011;17779;50.942;4.026;2023-03-26T03:03:21;24.88;;;4.38;;
31132;SDS011;17779;50.942;4.026;2023-03-26T03:05:51;27.50;;;6.07;;
31132;SDS011;17779;50.942;4.026;2023-03-26T03:08:18;26.42;;;5.05;;
31132;SDS011;17779;50.942;4.026;2023-03-26T03:10:54;21.75;;;4.63;;
31132;SDS011;17779;50.942;4.026;2023-03-26T03:13:28;23.38;;;5.03;;
31132;SDS011;17779;50.942;4.026;2023-03-26T03:15:54;25.30;;;5.00;;
31132;SDS011;17779;50.942;4.026;2023-03-26T03:20:46;25.70;;;5.50;;
31132;SDS011;17779;50.942;4.026;2023-03-26T03:23:12;28.95;;;5.60;;
31132;SDS011;17779;50.942;4.026;2023-03-26T03:28:05;21.85;;;5.72;;
31132;SDS011;17779;50.942;4.026;2023-03-26T03:30:31;23.65;;;5.25;;
31132;SDS011;17779;50.942;4.026;2023-03-26T03:32:58;24.10;;;5.53;;
31132;SDS011;17779;50.942;4.026;2023-03-26T03:35:26;25.52;;;6.43;;
31132;SDS011;17779;50.942;4.026;2023-03-26T03:37:54;27.02;;;6.03;;
31132;SDS011;17779;50.942;4.026;2023-03-26T03:40:21;24.58;;;6.78;;
31132;SDS011;17779;50.942;4.026;2023-03-26T03:42:47;25.15;;;6.53;;
31132;SDS011;17779;50.942;4.026;2023-03-26T03:45:13;31.33;;;6.63;;
31132;SDS011;17779;50.942;4.026;2023-03-26T03:47:39;29.42;;;7.05;;
31132;SDS011;17779;50.942;4.026;2023-03-26T03:50:05;31.40;;;7.35;;
31132;SDS011;17779;50.942;4.026;2023-03-26T03:52:31;23.05;;;6.38;;
31132;SDS011;17779;50.942;4.026;2023-03-26T03:54:57;30.02;;;6.35;;
31132;SDS011;17779;50.942;4.026;2023-03-26T03:57:26;34.90;;;6.80;;
31132;SDS011;17779;50.942;4.026;2023-03-26T03:59:53;28.13;;;6.75;;
31132;SDS011;17779;50.942;4.026;2023-03-26T04:02:22;29.50;;;7.07;;
31132;SDS011;17779;50.942;4.026;2023-03-26T04:04:59;26.58;;;7.38;;
31132;SDS011;17779;50.942;4.026;2023-03-26T04:07:26;28.33;;;7.75;;
31132;SDS011;17779;50.942;4.026;2023-03-26T04:09:59;25.52;;;6.63;;
31132;SDS011;17779;50.942;4.026;2023-03-26T04:12:29;27.92;;;7.10;;
31132;SDS011;17779;50.942;4.026;2023-03-26T04:14:55;34.63;;;7.32;;
31132;SDS011;17779;50.942;4.026;2023-03-26T04:17:22;28.10;;;6.65;;
31132;SDS011;17779;50.942;4.026;2023-03-26T04:19:48;27.35;;;7.03;;
31132;SDS011;17779;50.942;4.026;2023-03-26T04:22:17;24.33;;;6.78;;
31132;SDS011;17779;50.942;4.026;2023-03-26T04:24:43;27.63;;;7.55;;
31132;SDS011;17779;50.942;4.026;2023-03-26T04:27:12;33.60;;;7.43;;
31132;SDS011;17779;50.942;4.026;2023-03-26T04:29:41;30.13;;;7.30;;
31132;SDS011;17779;50.942;4.026;2023-03-26T04:32:11;28.52;;;7.40;;
31132;SDS011;17779;50.942;4.026;2023-03-26T04:34:46;33.85;;;7.68;;
31132;SDS011;17779;50.942;4.026;2023-03-26T04:37:22;33.50;;;8.20;;
31132;SDS011;17779;50.942;4.026;2023-03-26T04:39:52;28.63;;;7.07;;
31132;SDS011;17779;50.942;4.026;2023-03-26T04:42:19;28.58;;;7.80;;
31132;SDS011;17779;50.942;4.026;2023-03-26T04:44:46;23.30;;;6.68;;
31132;SDS011;17779;50.942;4.026;2023-03-26T04:47:17;25.38;;;6.70;;
31132;SDS011;17779;50.942;4.026;2023-03-26T04:49:44;31.90;;;6.63;;
31132;SDS011;17779;50.942;4.026;2023-03-26T04:52:12;25.05;;;6.93;;
31132;SDS011;17779;50.942;4.026;2023-03-26T04:54:39;21.02;;;5.50;;
31132;SDS011;17779;50.942;4.026;2023-03-26T04:57:09;22.42;;;4.75;;
31132;SDS011;17779;50.942;4.026;2023-03-26T04:59:45;28.65;;;5.35;;
31132;SDS011;17779;50.942;4.026;2023-03-26T05:02:11;32.45;;;5.25;;
31132;SDS011;17779;50.942;4.026;2023-03-26T05:04:38;22.92;;;4.60;;
31132;SDS011;17779;50.942;4.026;2023-03-26T05:07:04;16.48;;;4.82;;
31132;SDS011;17779;50.942;4.026;2023-03-26T05:09:30;19.73;;;4.07;;
31132;SDS011;17779;50.942;4.026;2023-03-26T05:11:56;25.55;;;4.43;;
31132;SDS011;17779;50.942;4.026;2023-03-26T05:16:48;25.27;;;4.43;;
31132;SDS011;17779;50.942;4.026;2023-03-26T05:19:17;23.55;;;4.38;;
31132;SDS011;17779;50.942;4.026;2023-03-26T05:21:46;19.42;;;4.00;;
31132;SDS011;17779;50.942;4.026;2023-03-26T05:24:12;24.50;;;4.18;;
31132;SDS011;17779;50.942;4.026;2023-03-26T05:26:38;18.27;;;3.45;;
31132;SDS011;17779;50.942;4.026;2023-03-26T05:29:04;20.85;;;3.83;;
31132;SDS011;17779;50.942;4.026;2023-03-26T05:31:30;9.63;;;1.92;;
31132;SDS011;17779;50.942;4.026;2023-03-26T05:33:57;10.63;;;2.22;;
31132;SDS011;17779;50.942;4.026;2023-03-26T05:36:27;13.35;;;1.95;;
31132;SDS011;17779;50.942;4.026;2023-03-26T05:38:53;11.05;;;2.42;;
31132;SDS011;17779;50.942;4.026;2023-03-26T05:41:19;13.15;;;2.83;;
31132;SDS011;17779;50.942;4.026;2023-03-26T05:43:45;12.30;;;2.35;;
31132;SDS011;17779;50.942;4.026;2023-03-26T05:46:13;11.30;;;2.42;;
31132;SDS011;17779;50.942;4.026;2023-03-26T05:48:39;9.02;;;2.42;;
31132;SDS011;17779;50.942;4.026;2023-03-26T05:51:05;15.93;;;2.85;;
31132;SDS011;17779;50.942;4.026;2023-03-26T05:53:32;15.35;;;2.58;;
31132;SDS011;17779;50.942;4.026;2023-03-26T05:55:58;15.68;;;3.25;;
31132;SDS011;17779;50.942;4.026;2023-03-26T05:58:25;19.02;;;2.60;;
31132;SDS011;17779;50.942;4.026;2023-03-26T06:01:06;13.25;;;2.97;;
31132;SDS011;17779;50.942;4.026;2023-03-26T06:03:35;14.70;;;2.60;;
31132;SDS011;17779;50.942;4.026;2023-03-26T06:06:06;20.90;;;3.13;;
31132;SDS011;17779;50.942;4.026;2023-03-26T06:08:34;16.98;;;2.90;;
31132;SDS011;17779;50.942;4.026;2023-03-26T06:11:00;12.10;;;3.00;;
31132;SDS011;17779;50.942;4.026;2023-03-26T06:13:28;16.80;;;3.08;;
31132;SDS011;17779;50.942;4.026;2023-03-26T06:15:54;14.75;;;3.00;;
31132;SDS011;17779;50.942;4.026;2023-03-26T06:18:22;10.02;;;2.45;;
31132;SDS011;17779;50.942;4.026;2023-03-26T06:20:51;11.95;;;2.38;;
31132;SDS011;17779;50.942;4.026;2023-03-26T06:23:18;16.90;;;2.85;;
31132;SDS011;17779;50.942;4.026;2023-03-26T06:28:10;13.77;;;3.13;;
31132;SDS011;17779;50.942;4.026;2023-03-26T06:30:36;20.80;;;3.20;;
31132;SDS011;17779;50.942;4.026;2023-03-26T06:33:03;17.42;;;2.90;;
31132;SDS011;17779;50.942;4.026;2023-03-26T06:35:29;10.27;;;2.67;;
31132;SDS011;17779;50.942;4.026;2023-03-26T06:40:21;16.65;;;2.85;;
31132;SDS011;17779;50.942;4.026;2023-03-26T06:42:48;14.15;;;2.88;;
31132;SDS011;17779;50.942;4.026;2023-03-26T06:45:14;11.18;;;2.17;;
31132;SDS011;17779;50.942;4.026;2023-03-26T06:47:40;10.88;;;2.80;;
31132;SDS011;17779;50.942;4.026;2023-03-26T06:50:06;6.18;;;1.88;;
31132;SDS011;17779;50.942;4.026;2023-03-26T06:52:32;9.80;;;1.77;;
31132;SDS011;17779;50.942;4.026;2023-03-26T06:54:58;11.02;;;2.15;;
31132;SDS011;17779;50.942;4.026;2023-03-26T06:57:24;13.32;;;2.75;;
31132;SDS011;17779;50.942;4.026;2023-03-26T06:59:50;7.93;;;1.98;;
31132;SDS011;17779;50.942;4.026;2023-03-26T07:02:16;9.15;;;2.08;;
31132;SDS011;17779;50.942;4.026;2023-03-26T07:04:41;8.05;;;2.20;;
31132;SDS011;17779;50.942;4.026;2023-03-26T07:07:07;7.40;;;1.75;;
31132;SDS011;17779;50.942;4.026;2023-03-26T07:09:33;11.10;;;2.10;;
31132;SDS011;17779;50.942;4.026;2023-03-26T07:11:59;10.93;;;1.90;;
31132;SDS011;17779;50.942;4.026;2023-03-26T07:16:54;9.50;;;2.67;;
31132;SDS011;17779;50.942;4.026;2023-03-26T07:19:22;7.53;;;1.70;;
31132;SDS011;17779;50.942;4.026;2023-03-26T07:21:47;10.23;;;2.22;;
31132;SDS011;17779;50.942;4.026;2023-03-26T07:24:14;7.75;;;1.70;;
31132;SDS011;17779;50.942;4.026;2023-03-26T07:29:34;7.10;;;1.88;;
31132;SDS011;17779;50.942;4.026;2023-03-26T07:35:03;7.95;;;1.60;;
31132;SDS011;17779;50.942;4.026;2023-03-26T07:37:54;5.38;;;1.67;;
31132;SDS011;17779;50.942;4.026;2023-03-26T07:46:08;9.23;;;1.85;;
31132;SDS011;17779;50.942;4.026;2023-03-26T07:48:40;6.07;;;1.83;;
31132;SDS011;17779;50.942;4.026;2023-03-26T07:51:08;8.82;;;2.10;;
31132;SDS011;17779;50.942;4.026;2023-03-26T07:53:35;8.00;;;1.90;;
31132;SDS011;17779;50.942;4.026;2023-03-26T08:01:54;5.72;;;1.63;;
31132;SDS011;17779;50.942;4.026;2023-03-26T08:04:30;7.20;;;1.73;;
31132;SDS011;17779;50.942;4.026;2023-03-26T08:07:02;5.82;;;1.58;;
31132;SDS011;17779;50.942;4.026;2023-03-26T08:09:44;11.00;;;2.10;;
31132;SDS011;17779;50.942;4.026;2023-03-26T08:12:47;9.63;;;1.95;;
31132;SDS011;17779;50.942;4.026;2023-03-26T08:15:31;5.65;;;1.90;;
31132;SDS011;17779;50.942;4.026;2023-03-26T08:20:54;11.13;;;2.28;;
31132;SDS011;17779;50.942;4.026;2023-03-26T08:23:55;9.85;;;2.55;;
31132;SDS011;17779;50.942;4.026;2023-03-26T08:29:54;5.55;;;1.65;;
31132;SDS011;17779;50.942;4.026;2023-03-26T08:32:32;7.55;;;2.10;;
31132;SDS011;17779;50.942;4.026;2023-03-26T08:34:58;11.45;;;2.15;;
31132;SDS011;17779;50.942;4.026;2023-03-26T08:37:25;12.10;;;2.55;;
31132;SDS011;17779;50.942;4.026;2023-03-26T08:39:52;10.55;;;2.20;;
31132;SDS011;17779;50.942;4.026;2023-03-26T08:47:59;11.13;;;2.08;;
31132;SDS011;17779;50.942;4.026;2023-03-26T08:55:52;8.63;;;2.38;;
31132;SDS011;17779;50.942;4.026;2023-03-26T09:04:39;8.55;;;1.92;;
31132;SDS011;17779;50.942;4.026;2023-03-26T09:07:53;6.53;;;1.73;;
31132;SDS011;17779;50.942;4.026;2023-03-26T09:10:48;6.65;;;2.00;;
31132;SDS011;17779;50.942;4.026;2023-03-26T09:16:00;11.63;;;2.10;;
31132;SDS011;17779;50.942;4.026;2023-03-26T09:27:52;7.80;;;1.90;;
31132;SDS011;17779;50.942;4.026;2023-03-26T09:36:42;8.23;;;2.30;;
31132;SDS011;17779;50.942;4.026;2023-03-26T09:39:38;10.32;;;2.60;;
31132;SDS011;17779;50.942;4.026;2023-03-26T09:56:11;8.38;;;2.13;;
31132;SDS011;17779;50.942;4.026;2023-03-26T09:59:02;8.30;;;2.03;;
31132;SDS011;17779;50.942;4.026;2023-03-26T10:01:47;4.50;;;1.75;;
31132;SDS011;17779;50.942;4.026;2023-03-26T10:07:35;5.18;;;1.60;;
31132;SDS011;17779;50.942;4.026;2023-03-26T10:23:50;6.50;;;2.17;;
31132;SDS011;17779;50.942;4.026;2023-03-26T10:56:59;8.75;;;3.35;;
31132;SDS011;17779;50.942;4.026;2023-03-26T10:59:27;6.53;;;2.40;;
31132;SDS011;17779;50.942;4.026;2023-03-26T11:10:27;8.88;;;3.53;;
31132;SDS011;17779;50.942;4.026;2023-03-26T11:13:18;8.82;;;4.30;;
31132;SDS011;17779;50.942;4.026;2023-03-26T11:16:05;9.85;;;3.92;;
31132;SDS011;17779;50.942;4.026;2023-03-26T11:24:04;5.93;;;1.50;;
31132;SDS011;17779;50.942;4.026;2023-03-26T11:26:46;4.43;;;1.33;;
31132;SDS011;17779;50.942;4.026;2023-03-26T11:29:44;3.60;;;1.38;;
31132;SDS011;17779;50.942;4.026;2023-03-26T11:32:16;5.65;;;1.65;;
31132;SDS011;17779;50.942;4.026;2023-03-26T11:35:14;6.25;;;1.90;;
31132;SDS011;17779;50.942;4.026;2023-03-26T11:37:49;4.70;;;1.42;;
31132;SDS011;17779;50.942;4.026;2023-03-26T11:40:22;5.90;;;2.10;;
31132;SDS011;17779;50.942;4.026;2023-03-26T11:43:02;5.00;;;1.27;;
31132;SDS011;17779;50.942;4.026;2023-03-26T11:45:36;2.45;;;1.10;;
31132;SDS011;17779;50.942;4.026;2023-03-26T11:48:09;2.42;;;1.00;;
31132;SDS011;17779;50.942;4.026;2023-03-26T11:50:44;3.58;;;1.30;;
31132;SDS011;17779;50.942;4.026;2023-03-26T11:53:14;5.10;;;1.50;;
31132;SDS011;17779;50.942;4.026;2023-03-26T11:55:56;3.05;;;1.08;;
31132;SDS011;17779;50.942;4.026;2023-03-26T11:58:48;5.55;;;1.75;;
31132;SDS011;17779;50.942;4.026;2023-03-26T12:01:42;4.00;;;1.20;;
31132;SDS011;17779;50.942;4.026;2023-03-26T12:04:14;3.63;;;1.35;;
31132;SDS011;17779;50.942;4.026;2023-03-26T12:06:49;4.10;;;1.35;;
31132;SDS011;17779;50.942;4.026;2023-03-26T12:09:16;3.40;;;1.20;;
31132;SDS011;17779;50.942;4.026;2023-03-26T12:11:42;9.88;;;3.38;;
31132;SDS011;17779;50.942;4.026;2023-03-26T12:14:12;9.05;;;3.45;;
31132;SDS011;17779;50.942;4.026;2023-03-26T12:17:01;6.28;;;2.40;;
31132;SDS011;17779;50.942;4.026;2023-03-26T12:19:43;6.15;;;1.92;;
31132;SDS011;17779;50.942;4.026;2023-03-26T12:25:18;6.38;;;2.20;;
31132;SDS011;17779;50.942;4.026;2023-03-26T12:27:59;4.78;;;1.83;;
31132;SDS011;17779;50.942;4.026;2023-03-26T12:30:27;6.32;;;2.13;;
31132;SDS011;17779;50.942;4.026;2023-03-26T12:32:56;5.90;;;2.30;;
31132;SDS011;17779;50.942;4.026;2023-03-26T12:35:28;10.60;;;2.70;;
31132;SDS011;17779;50.942;4.026;2023-03-26T12:41:08;8.90;;;2.60;;
31132;SDS011;17779;50.942;4.026;2023-03-26T12:43:40;6.10;;;2.40;;
31132;SDS011;17779;50.942;4.026;2023-03-26T12:46:29;6.78;;;2.60;;
31132;SDS011;17779;50.942;4.026;2023-03-26T12:49:08;8.05;;;3.33;;
31132;SDS011;17779;50.942;4.026;2023-03-26T12:59:44;5.10;;;2.60;;
31132;SDS011;17779;50.942;4.026;2023-03-26T13:15:51;5.80;;;1.92;;
31132;SDS011;17779;50.942;4.026;2023-03-26T13:21:36;6.25;;;3.40;;
31132;SDS011;17779;50.942;4.026;2023-03-26T13:27:14;3.75;;;1.75;;
31132;SDS011;17779;50.942;4.026;2023-03-26T13:38:20;2.28;;;1.38;;
31132;SDS011;17779;50.942;4.026;2023-03-26T13:51:47;2.38;;;1.50;;
31132;SDS011;17779;50.942;4.026;2023-03-26T13:54:21;5.07;;;1.60;;
31132;SDS011;17779;50.942;4.026;2023-03-26T13:57:04;5.15;;;1.88;;
31132;SDS011;17779;50.942;4.026;2023-03-26T13:59:36;3.95;;;1.48;;
31132;SDS011;17779;50.942;4.026;2023-03-26T14:02:36;1.58;;;1.35;;
31132;SDS011;17779;50.942;4.026;2023-03-26T14:07:48;3.10;;;1.85;;
31132;SDS011;17779;50.942;4.026;2023-03-26T14:10:28;7.35;;;2.97;;
31132;SDS011;17779;50.942;4.026;2023-03-26T14:15:29;4.00;;;2.00;;
31132;SDS011;17779;50.942;4.026;2023-03-26T14:18:36;6.90;;;2.40;;
31132;SDS011;17779;50.942;4.026;2023-03-26T14:23:41;4.28;;;2.13;;
31132;SDS011;17779;50.942;4.026;2023-03-26T14:29:29;5.13;;;2.30;;
31132;SDS011;17779;50.942;4.026;2023-03-26T14:48:33;7.68;;;2.70;;
31132;SDS011;17779;50.942;4.026;2023-03-26T14:53:54;4.30;;;1.98;;
31132;SDS011;17779;50.942;4.026;2023-03-26T15:13:52;6.18;;;2.38;;
31132;SDS011;17779;50.942;4.026;2023-03-26T15:24:58;10.68;;;4.45;;
31132;SDS011;17779;50.942;4.026;2023-03-26T15:45:36;18.58;;;4.97;;
31132;SDS011;17779;50.942;4.026;2023-03-26T15:53:13;21.95;;;5.00;;
31132;SDS011;17779;50.942;4.026;2023-03-26T15:58:43;16.75;;;5.55;;
31132;SDS011;17779;50.942;4.026;2023-03-26T16:12:45;16.85;;;4.35;;
31132;SDS011;17779;50.942;4.026;2023-03-26T16:15:30;19.65;;;4.10;;
31132;SDS011;17779;50.942;4.026;2023-03-26T16:28:34;21.30;;;4.20;;
31132;SDS011;17779;50.942;4.026;2023-03-26T16:33:37;20.23;;;3.38;;
31132;SDS011;17779;50.942;4.026;2023-03-26T16:55:18;15.77;;;3.95;;
31132;SDS011;17779;50.942;4.026;2023-03-26T16:58:14;21.83;;;5.22;;
31132;SDS011;17779;50.942;4.026;2023-03-26T17:03:42;24.42;;;5.70;;
31132;SDS011;17779;50.942;4.026;2023-03-26T17:06:21;24.60;;;5.03;;
31132;SDS011;17779;50.942;4.026;2023-03-26T17:09:05;27.10;;;4.95;;
31132;SDS011;17779;50.942;4.026;2023-03-26T17:17:21;24.25;;;4.18;;
31132;SDS011;17779;50.942;4.026;2023-03-26T17:31:18;20.05;;;3.97;;
31132;SDS011;17779;50.942;4.026;2023-03-26T17:33:48;19.83;;;4.13;;
31132;SDS011;17779;50.942;4.026;2023-03-26T17:36:22;15.65;;;3.03;;
31132;SDS011;17779;50.942;4.026;2023-03-26T17:45:23;17.83;;;3.35;;
31132;SDS011;17779;50.942;4.026;2023-03-26T17:50:32;14.35;;;3.22;;
31132;SDS011;17779;50.942;4.026;2023-03-26T17:53:14;20.45;;;3.28;;
31132;SDS011;17779;50.942;4.026;2023-03-26T17:55:49;14.10;;;3.20;;
31132;SDS011;17779;50.942;4.026;2023-03-26T17:58:21;18.55;;;3.22;;
31132;SDS011;17779;50.942;4.026;2023-03-26T18:00:51;20.70;;;3.83;;
31132;SDS011;17779;50.942;4.026;2023-03-26T18:03:30;17.85;;;3.47;;
31132;SDS011;17779;50.942;4.026;2023-03-26T18:06:04;16.73;;;3.45;;
31132;SDS011;17779;50.942;4.026;2023-03-26T18:08:35;23.77;;;3.80;;
31132;SDS011;17779;50.942;4.026;2023-03-26T18:16:48;14.77;;;3.20;;
31132;SDS011;17779;50.942;4.026;2023-03-26T18:19:19;18.83;;;3.88;;
31132;SDS011;17779;50.942;4.026;2023-03-26T18:21:51;18.17;;;3.10;;
31132;SDS011;17779;50.942;4.026;2023-03-26T18:27:08;20.10;;;3.78;;
31132;SDS011;17779;50.942;4.026;2023-03-26T18:29:37;11.80;;;3.13;;
31132;SDS011;17779;50.942;4.026;2023-03-26T18:34:36;17.38;;;3.45;;
31132;SDS011;17779;50.942;4.026;2023-03-26T18:42:43;18.63;;;3.70;;
31132;SDS011;17779;50.942;4.026;2023-03-26T18:45:22;16.85;;;2.95;;
31132;SDS011;17779;50.942;4.026;2023-03-26T18:47:58;15.63;;;4.28;;
31132;SDS011;17779;50.942;4.026;2023-03-26T18:50:33;17.08;;;3.55;;
31132;SDS011;17779;50.942;4.026;2023-03-26T18:53:02;19.77;;;3.67;;
31132;SDS011;17779;50.942;4.026;2023-03-26T18:55:30;11.75;;;3.20;;
31132;SDS011;17779;50.942;4.026;2023-03-26T18:57:58;19.17;;;3.35;;
31132;SDS011;17779;50.942;4.026;2023-03-26T19:00:34;18.98;;;3.83;;
31132;SDS011;17779;50.942;4.026;2023-03-26T19:03:05;18.70;;;3.45;;
31132;SDS011;17779;50.942;4.026;2023-03-26T19:05:32;15.68;;;3.35;;
31132;SDS011;17779;50.942;4.026;2023-03-26T19:08:02;10.75;;;2.60;;
31132;SDS011;17779;50.942;4.026;2023-03-26T19:10:31;18.50;;;3.47;;
31132;SDS011;17779;50.942;4.026;2023-03-26T19:12:59;14.10;;;2.80;;
31132;SDS011;17779;50.942;4.026;2023-03-26T19:15:27;18.70;;;3.10;;
31132;SDS011;17779;50.942;4.026;2023-03-26T19:17:57;20.83;;;3.33;;
31132;SDS011;17779;50.942;4.026;2023-03-26T19:20:52;17.67;;;3.35;;
31132;SDS011;17779;50.942;4.026;2023-03-26T19:23:20;18.60;;;2.80;;
31132;SDS011;17779;50.942;4.026;2023-03-26T19:25:51;13.77;;;2.53;;
31132;SDS011;17779;50.942;4.026;2023-03-26T19:28:30;25.33;;;4.28;;
31132;SDS011;17779;50.942;4.026;2023-03-26T19:31:09;30.40;;;4.57;;
31132;SDS011;17779;50.942;4.026;2023-03-26T19:33:39;15.02;;;3.00;;
31132;SDS011;17779;50.942;4.026;2023-03-26T19:38:52;17.42;;;3.03;;
31132;SDS011;17779;50.942;4.026;2023-03-26T19:44:00;14.00;;;2.53;;
31132;SDS011;17779;50.942;4.026;2023-03-26T19:46:42;14.00;;;3.03;;
31132;SDS011;17779;50.942;4.026;2023-03-26T19:49:26;17.13;;;3.25;;
31132;SDS011;17779;50.942;4.026;2023-03-26T19:52:19;11.57;;;2.60;;
31132;SDS011;17779;50.942;4.026;2023-03-26T19:54:52;15.75;;;3.45;;
31132;SDS011;17779;50.942;4.026;2023-03-26T19:57:21;20.58;;;3.08;;
31132;SDS011;17779;50.942;4.026;2023-03-26T19:59:48;15.82;;;3.63;;
31132;SDS011;17779;50.942;4.026;2023-03-26T20:02:20;19.70;;;3.17;;
31132;SDS011;17779;50.942;4.026;2023-03-26T20:04:46;10.18;;;2.50;;
31132;SDS011;17779;50.942;4.026;2023-03-26T20:07:18;21.15;;;3.75;;
31132;SDS011;17779;50.942;4.026;2023-03-26T20:09:46;14.63;;;2.40;;
31132;SDS011;17779;50.942;4.026;2023-03-26T20:12:13;10.18;;;2.75;;
31132;SDS011;17779;50.942;4.026;2023-03-26T20:14:40;9.57;;;2.83;;
31132;SDS011;17779;50.942;4.026;2023-03-26T20:17:18;17.08;;;3.25;;
31132;SDS011;17779;50.942;4.026;2023-03-26T20:19:45;15.85;;;2.75;;
31132;SDS011;17779;50.942;4.026;2023-03-26T20:22:13;12.48;;;2.90;;
31132;SDS011;17779;50.942;4.026;2023-03-26T20:24:45;10.57;;;2.60;;
31132;SDS011;17779;50.942;4.026;2023-03-26T20:27:12;13.90;;;3.08;;
31132;SDS011;17779;50.942;4.026;2023-03-26T20:29:39;14.95;;;2.72;;
31132;SDS011;17779;50.942;4.026;2023-03-26T20:32:16;20.75;;;3.45;;
31132;SDS011;17779;50.942;4.026;2023-03-26T20:34:44;16.50;;;3.42;;
31132;SDS011;17779;50.942;4.026;2023-03-26T20:37:13;15.80;;;3.05;;
31132;SDS011;17779;50.942;4.026;2023-03-26T20:39:39;19.63;;;3.03;;
31132;SDS011;17779;50.942;4.026;2023-03-26T20:42:05;19.63;;;3.55;;
31132;SDS011;17779;50.942;4.026;2023-03-26T20:44:33;15.57;;;3.38;;
31132;SDS011;17779;50.942;4.026;2023-03-26T20:47:00;22.80;;;3.17;;
31132;SDS011;17779;50.942;4.026;2023-03-26T20:49:26;11.35;;;2.53;;
31132;SDS011;17779;50.942;4.026;2023-03-26T20:51:53;14.95;;;2.58;;
31132;SDS011;17779;50.942;4.026;2023-03-26T20:54:21;17.10;;;3.40;;
31132;SDS011;17779;50.942;4.026;2023-03-26T20:56:49;18.73;;;3.15;;
31132;SDS011;17779;50.942;4.026;2023-03-26T20:59:17;15.02;;;3.08;;
31132;SDS011;17779;50.942;4.026;2023-03-26T21:01:46;20.30;;;3.13;;
31132;SDS011;17779;50.942;4.026;2023-03-26T21:04:13;20.60;;;4.28;;
31132;SDS011;17779;50.942;4.026;2023-03-26T21:06:40;14.35;;;2.40;;
31132;SDS011;17779;50.942;4.026;2023-03-26T21:09:09;17.40;;;3.20;;
31132;SDS011;17779;50.942;4.026;2023-03-26T21:12:01;11.35;;;2.25;;
31132;SDS011;17779;50.942;4.026;2023-03-26T21:14:33;14.23;;;2.40;;
31132;SDS011;17779;50.942;4.026;2023-03-26T21:17:07;24.02;;;3.33;;
31132;SDS011;17779;50.942;4.026;2023-03-26T21:19:44;22.05;;;3.05;;
31132;SDS011;17779;50.942;4.026;2023-03-26T21:22:34;15.52;;;3.38;;
31132;SDS011;17779;50.942;4.026;2023-03-26T21:25:09;15.20;;;3.58;;
31132;SDS011;17779;50.942;4.026;2023-03-26T21:27:50;13.25;;;2.85;;
31132;SDS011;17779;50.942;4.026;2023-03-26T21:30:25;17.83;;;2.90;;
31132;SDS011;17779;50.942;4.026;2023-03-26T21:35:18;12.77;;;2.55;;
31132;SDS011;17779;50.942;4.026;2023-03-26T21:40:13;12.50;;;2.58;;
31132;SDS011;17779;50.942;4.026;2023-03-26T21:42:41;17.33;;;3.47;;
31132;SDS011;17779;50.942;4.026;2023-03-26T21:45:09;19.08;;;2.90;;
31132;SDS011;17779;50.942;4.026;2023-03-26T21:47:36;17.50;;;2.92;;
31132;SDS011;17779;50.942;4.026;2023-03-26T21:50:02;16.75;;;2.88;;